createdAt,value
2018-12-22T00:00:42.653Z,998.12
2018-12-22T00:01:42.621Z,998.23
2018-12-22T00:02:42.616Z,998.23
2018-12-22T00:03:42.558Z,998.21
2018-12-22T00:04:42.528Z,998.34
2018-12-22T00:05:42.494Z,998.26
2018-12-22T00:06:42.463Z,998.26
2018-12-22T00:07:42.434Z,998.31
2018-12-22T00:08:42.402Z,998.28
2018-12-22T00:09:42.371Z,998.34
2018-12-22T00:10:42.339Z,998.31
2018-12-22T00:11:42.309Z,998.36
2018-12-22T00:12:42.277Z,998.41
2018-12-22T00:13:42.246Z,998.33
2018-12-22T00:14:42.213Z,998.41
2018-12-22T00:15:42.183Z,998.50
2018-12-22T00:16:42.152Z,998.41
2018-12-22T00:17:42.120Z,998.50
2018-12-22T00:18:42.088Z,998.45
2018-12-22T00:19:42.058Z,998.34
2018-12-22T00:20:42.025Z,998.50
2018-12-22T00:21:41.995Z,998.46
2018-12-22T00:22:41.966Z,998.54
2018-12-22T00:23:41.933Z,998.51
2018-12-22T00:24:41.901Z,998.44
2018-12-22T00:25:41.870Z,998.50
2018-12-22T00:26:41.839Z,998.51
2018-12-22T00:27:41.807Z,998.69
2018-12-22T00:28:41.776Z,998.61
2018-12-22T00:29:41.746Z,998.52
2018-12-22T00:30:41.714Z,998.69
2018-12-22T00:31:41.686Z,998.69
2018-12-22T00:32:41.652Z,998.78
2018-12-22T00:33:41.619Z,998.70
2018-12-22T00:34:41.590Z,998.69
2018-12-22T00:35:41.557Z,998.79
2018-12-22T00:36:41.526Z,998.77
2018-12-22T00:37:41.496Z,998.89
2018-12-22T00:38:41.464Z,998.76
2018-12-22T00:39:41.433Z,998.77
2018-12-22T00:40:41.403Z,998.74
2018-12-22T00:41:41.368Z,998.85
2018-12-22T00:42:41.338Z,998.86
2018-12-22T00:43:41.307Z,998.71
2018-12-22T00:44:41.276Z,998.92
2018-12-22T00:45:41.244Z,998.98
2018-12-22T00:46:41.211Z,998.99
2018-12-22T00:47:41.180Z,999.02
2018-12-22T00:48:41.149Z,998.96
2018-12-22T00:49:41.117Z,999.06
2018-12-22T00:50:41.087Z,999.04
2018-12-22T00:51:41.055Z,999.02
2018-12-22T00:52:41.024Z,999.06
2018-12-22T00:53:40.991Z,999.13
2018-12-22T00:54:40.961Z,999.16
2018-12-22T00:55:40.929Z,999.16
2018-12-22T00:56:40.897Z,999.14
2018-12-22T00:57:40.865Z,999.14
2018-12-22T00:58:40.835Z,999.17
2018-12-22T00:59:40.804Z,999.17
2018-12-22T01:00:40.773Z,999.28
2018-12-22T01:01:40.750Z,999.31
2018-12-22T01:02:40.711Z,999.23
2018-12-22T01:03:40.678Z,999.29
2018-12-22T01:04:40.646Z,999.31
2018-12-22T01:05:40.615Z,999.40
2018-12-22T01:06:40.582Z,999.38
2018-12-22T01:07:40.554Z,999.43
2018-12-22T01:08:40.520Z,999.41
2018-12-22T01:09:40.492Z,999.46
2018-12-22T01:10:40.456Z,999.55
2018-12-22T01:11:40.432Z,999.53
2018-12-22T01:12:40.394Z,999.56
2018-12-22T01:13:40.363Z,999.59
2018-12-22T01:14:40.332Z,999.67
2018-12-22T01:15:40.298Z,999.66
2018-12-22T01:16:40.267Z,999.75
2018-12-22T01:17:40.234Z,999.77
2018-12-22T01:18:40.203Z,999.76
2018-12-22T01:19:40.173Z,999.85
2018-12-22T01:20:40.140Z,999.84
2018-12-22T01:21:40.108Z,1000.05
2018-12-22T01:22:40.080Z,999.98
2018-12-22T01:23:40.044Z,1000.04
2018-12-22T01:24:40.012Z,1000.05
2018-12-22T01:25:39.980Z,999.97
2018-12-22T01:26:39.948Z,1000.01
2018-12-22T01:27:39.920Z,1000.10
2018-12-22T01:28:39.895Z,1000.11
2018-12-22T01:29:39.852Z,1000.03
2018-12-22T01:30:39.822Z,1000.24
2018-12-22T01:31:39.789Z,1000.12
2018-12-22T01:32:39.757Z,1000.24
2018-12-22T01:33:39.724Z,1000.13
2018-12-22T01:34:39.699Z,1000.25
2018-12-22T01:35:39.660Z,1000.21
2018-12-22T01:36:39.630Z,1000.33
2018-12-22T01:37:39.596Z,1000.24
2018-12-22T01:38:39.565Z,1000.18
2018-12-22T01:39:39.534Z,1000.22
2018-12-22T01:40:39.502Z,1000.13
2018-12-22T01:41:39.469Z,1000.15
2018-12-22T01:42:39.437Z,1000.22
2018-12-22T01:43:39.407Z,1000.28
2018-12-22T01:44:39.374Z,1000.10
2018-12-22T01:45:39.342Z,1000.23
2018-12-22T01:46:39.308Z,1000.45
2018-12-22T01:47:39.281Z,1000.36
2018-12-22T01:48:39.247Z,1000.30
2018-12-22T01:49:39.212Z,1000.33
2018-12-22T01:50:39.181Z,1000.31
2018-12-22T01:51:39.150Z,1000.60
2018-12-22T01:52:39.118Z,1000.33
2018-12-22T01:53:39.084Z,1000.34
2018-12-22T01:54:39.053Z,1000.42
2018-12-22T01:55:39.022Z,1000.46
2018-12-22T01:56:38.992Z,1000.44
2018-12-22T01:57:38.958Z,1000.53
2018-12-22T01:58:38.929Z,1000.56
2018-12-22T01:59:38.894Z,1000.53
2018-12-22T02:00:38.862Z,1000.60
2018-12-22T02:01:38.830Z,1000.58
2018-12-22T02:02:38.797Z,1000.69
2018-12-22T02:03:38.767Z,1000.70
2018-12-22T02:04:38.736Z,1000.65
2018-12-22T02:05:38.702Z,1000.64
2018-12-22T02:06:38.671Z,1000.72
2018-12-22T02:07:38.640Z,1000.59
2018-12-22T02:08:38.607Z,1000.64
2018-12-22T02:09:38.574Z,1000.55
2018-12-22T02:10:38.544Z,1000.67
2018-12-22T02:11:38.510Z,1000.65
2018-12-22T02:12:38.481Z,1000.63
2018-12-22T02:13:38.448Z,1000.64
2018-12-22T02:14:38.415Z,1000.65
2018-12-22T02:15:38.383Z,1000.69
2018-12-22T02:16:38.353Z,1000.64
2018-12-22T02:17:38.319Z,1000.62
2018-12-22T02:18:38.288Z,1000.63
2018-12-22T02:19:38.257Z,1000.66
2018-12-22T02:20:38.225Z,1000.61
2018-12-22T02:21:38.192Z,1000.72
2018-12-22T02:22:38.159Z,1000.70
2018-12-22T02:23:38.132Z,1000.76
2018-12-22T02:24:38.097Z,1000.77
2018-12-22T02:25:38.066Z,1000.76
2018-12-22T02:26:38.033Z,1000.78
2018-12-22T02:27:38.001Z,1000.77
2018-12-22T02:28:37.970Z,1000.73
2018-12-22T02:29:37.938Z,1000.79
2018-12-22T02:30:37.907Z,1000.67
2018-12-22T02:31:37.876Z,1000.77
2018-12-22T02:32:37.844Z,1000.77
2018-12-22T02:33:37.810Z,1000.97
2018-12-22T02:34:37.778Z,1000.82
2018-12-22T02:35:37.747Z,1000.85
2018-12-22T02:36:37.718Z,1000.96
2018-12-22T02:37:37.682Z,1000.97
2018-12-22T02:38:37.653Z,1000.98
2018-12-22T02:39:37.619Z,1000.97
2018-12-22T02:40:37.589Z,1001.01
2018-12-22T02:41:37.555Z,1001.05
2018-12-22T02:42:37.523Z,1001.01
2018-12-22T02:43:37.492Z,1000.99
2018-12-22T02:44:37.458Z,1001.03
2018-12-22T02:45:37.428Z,1001.10
2018-12-22T02:46:37.398Z,1000.99
2018-12-22T02:47:37.363Z,1001.05
2018-12-22T02:48:37.331Z,1001.11
2018-12-22T02:49:37.299Z,1001.10
2018-12-22T02:50:37.266Z,1001.03
2018-12-22T02:51:37.235Z,1001.09
2018-12-22T02:52:37.204Z,1001.13
2018-12-22T02:53:37.191Z,1001.17
2018-12-22T02:54:37.138Z,1001.14
2018-12-22T02:55:37.106Z,1001.14
2018-12-22T02:56:37.073Z,1001.15
2018-12-22T02:57:37.049Z,1001.09
2018-12-22T02:58:37.018Z,1001.12
2018-12-22T02:59:36.978Z,1001.20
2018-12-22T03:00:36.949Z,1001.20
2018-12-22T03:01:36.913Z,1001.17
2018-12-22T03:02:36.882Z,1001.16
2018-12-22T03:03:36.851Z,1001.26
2018-12-22T03:04:36.819Z,1001.16
2018-12-22T03:05:36.784Z,1001.25
2018-12-22T03:06:36.754Z,1001.22
2018-12-22T03:07:36.721Z,1001.26
2018-12-22T03:08:36.690Z,1001.29
2018-12-22T03:09:36.658Z,1001.33
2018-12-22T03:10:36.624Z,1001.25
2018-12-22T03:11:36.592Z,1001.20
2018-12-22T03:12:36.561Z,1001.27
2018-12-22T03:13:36.526Z,1001.20
2018-12-22T03:14:36.496Z,1001.33
2018-12-22T03:15:36.463Z,1001.25
2018-12-22T03:16:36.532Z,1001.24
2018-12-22T03:17:36.398Z,1001.26
2018-12-22T03:18:36.366Z,1001.31
2018-12-22T03:19:36.336Z,1001.32
2018-12-22T03:20:36.303Z,1001.35
2018-12-22T03:21:36.269Z,1001.31
2018-12-22T03:22:36.237Z,1001.34
2018-12-22T03:23:36.206Z,1001.37
2018-12-22T03:24:36.174Z,1001.37
2018-12-22T03:25:36.140Z,1001.30
2018-12-22T03:26:36.112Z,1001.37
2018-12-22T03:27:36.076Z,1001.31
2018-12-22T03:28:36.045Z,1001.37
2018-12-22T03:29:36.011Z,1001.46
2018-12-22T03:30:35.981Z,1001.36
2018-12-22T03:31:35.949Z,1001.48
2018-12-22T03:32:35.917Z,1001.49
2018-12-22T03:33:35.884Z,1001.45
2018-12-22T03:34:35.851Z,1001.43
2018-12-22T03:35:35.909Z,1001.47
2018-12-22T03:36:35.789Z,1001.53
2018-12-22T03:37:35.757Z,1001.54
2018-12-22T03:38:35.723Z,1001.45
2018-12-22T03:39:35.691Z,1001.48
2018-12-22T03:40:35.660Z,1001.44
2018-12-22T03:41:35.626Z,1001.41
2018-12-22T03:42:35.595Z,1001.54
2018-12-22T03:43:35.562Z,1001.51
2018-12-22T03:44:35.532Z,1001.54
2018-12-22T03:45:35.498Z,1001.58
2018-12-22T03:46:35.480Z,1001.59
2018-12-22T03:47:35.433Z,1001.61
2018-12-22T03:48:35.402Z,1001.62
2018-12-22T03:49:35.369Z,1001.60
2018-12-22T03:50:35.338Z,1001.64
2018-12-22T03:51:35.304Z,1001.56
2018-12-22T03:52:35.275Z,1001.62
2018-12-22T03:53:35.240Z,1001.60
2018-12-22T03:54:35.215Z,1001.59
2018-12-22T03:55:35.174Z,1001.63
2018-12-22T03:56:35.144Z,1001.63
2018-12-22T03:57:35.115Z,1001.64
2018-12-22T03:58:35.080Z,1001.64
2018-12-22T03:59:35.046Z,1001.57
2018-12-22T04:00:35.014Z,1001.64
2018-12-22T04:01:34.983Z,1001.66
2018-12-22T04:02:34.954Z,1001.62
2018-12-22T04:03:34.920Z,1001.58
2018-12-22T04:04:34.886Z,1001.58
2018-12-22T04:05:34.854Z,1001.61
2018-12-22T04:06:34.823Z,1001.57
2018-12-22T04:07:34.791Z,1001.62
2018-12-22T04:08:34.759Z,1001.57
2018-12-22T04:09:34.726Z,1001.63
2018-12-22T04:10:34.692Z,1001.57
2018-12-22T04:11:34.660Z,1001.55
2018-12-22T04:12:34.627Z,1001.60
2018-12-22T04:13:34.594Z,1001.63
2018-12-22T04:14:34.562Z,1001.60
2018-12-22T04:15:34.531Z,1001.57
2018-12-22T04:16:34.500Z,1001.58
2018-12-22T04:17:34.468Z,1001.61
2018-12-22T04:18:34.435Z,1001.62
2018-12-22T04:19:34.401Z,1001.61
2018-12-22T04:20:34.382Z,1001.58
2018-12-22T04:21:34.338Z,1001.58
2018-12-22T04:22:34.304Z,1001.60
2018-12-22T04:23:34.273Z,1001.66
2018-12-22T04:24:34.242Z,1001.66
2018-12-22T04:25:34.272Z,1001.62
2018-12-22T04:26:34.175Z,1001.57
2018-12-22T04:27:34.144Z,1001.57
2018-12-22T04:28:34.113Z,1001.61
2018-12-22T04:29:34.471Z,1001.66
2018-12-22T04:30:34.046Z,1001.64
2018-12-22T04:31:34.016Z,1001.65
2018-12-22T04:32:33.993Z,1001.70
2018-12-22T04:33:33.950Z,1001.71
2018-12-22T04:34:33.918Z,1001.73
2018-12-22T04:35:33.885Z,1001.75
2018-12-22T04:36:33.855Z,1001.72
2018-12-22T04:37:33.822Z,1001.79
2018-12-22T04:38:33.790Z,1001.78
2018-12-22T04:39:33.757Z,1001.79
2018-12-22T04:40:33.727Z,1001.80
2018-12-22T04:41:33.693Z,1001.74
2018-12-22T04:42:33.661Z,1001.80
2018-12-22T04:43:33.629Z,1001.80
2018-12-22T04:44:33.597Z,1001.80
2018-12-22T04:45:33.563Z,1001.77
2018-12-22T04:46:33.531Z,1001.79
2018-12-22T04:47:33.499Z,1001.85
2018-12-22T04:48:33.469Z,1001.80
2018-12-22T04:49:33.435Z,1001.86
2018-12-22T04:50:33.403Z,1001.86
2018-12-22T04:51:33.371Z,1001.80
2018-12-22T04:52:33.340Z,1001.84
2018-12-22T04:53:33.310Z,1001.88
2018-12-22T04:54:33.276Z,1001.90
2018-12-22T04:55:33.243Z,1001.81
2018-12-22T04:56:33.212Z,1001.87
2018-12-22T04:57:33.180Z,1001.87
2018-12-22T04:58:33.146Z,1001.94
2018-12-22T04:59:33.114Z,1001.91
2018-12-22T05:00:33.082Z,1001.90
2018-12-22T05:01:33.051Z,1001.94
2018-12-22T05:02:33.018Z,1001.95
2018-12-22T05:03:32.986Z,1001.96
2018-12-22T05:04:32.954Z,1001.93
2018-12-22T05:05:32.920Z,1001.98
2018-12-22T05:06:32.889Z,1001.93
2018-12-22T05:07:32.857Z,1001.95
2018-12-22T05:08:32.824Z,1001.90
2018-12-22T05:09:32.791Z,1001.95
2018-12-22T05:10:32.762Z,1001.93
2018-12-22T05:11:32.727Z,1001.91
2018-12-22T05:12:32.696Z,1001.95
2018-12-22T05:13:32.663Z,1001.95
2018-12-22T05:14:32.631Z,1001.95
2018-12-22T05:15:32.718Z,1001.99
2018-12-22T05:16:32.566Z,1002.00
2018-12-22T05:17:32.532Z,1002.03
2018-12-22T05:18:32.501Z,1002.02
2018-12-22T05:19:32.469Z,1002.03
2018-12-22T05:20:32.436Z,1002.02
2018-12-22T05:21:32.403Z,1002.01
2018-12-22T05:22:32.370Z,1002.01
2018-12-22T05:23:32.341Z,1002.08
2018-12-22T05:24:32.309Z,1002.04
2018-12-22T05:25:32.273Z,1002.00
2018-12-22T05:26:32.240Z,1002.06
2018-12-22T05:27:32.207Z,1002.08
2018-12-22T05:28:32.177Z,1002.07
2018-12-22T05:29:32.144Z,1002.07
2018-12-22T05:30:32.109Z,1002.07
2018-12-22T05:31:32.079Z,1002.11
2018-12-22T05:32:32.044Z,1002.15
2018-12-22T05:33:32.012Z,1002.07
2018-12-22T05:34:31.982Z,1002.08
2018-12-22T05:35:31.948Z,1002.08
2018-12-22T05:36:31.966Z,1002.12
2018-12-22T05:37:31.880Z,1002.14
2018-12-22T05:38:31.848Z,1002.18
2018-12-22T05:39:31.816Z,1002.12
2018-12-22T05:40:31.783Z,1002.06
2018-12-22T05:41:31.750Z,1002.08
2018-12-22T05:42:31.719Z,1002.09
2018-12-22T05:43:31.688Z,1002.10
2018-12-22T05:44:31.653Z,1002.07
2018-12-22T05:45:31.619Z,1002.10
2018-12-22T05:46:31.587Z,1002.05
2018-12-22T05:47:31.555Z,1002.15
2018-12-22T05:48:31.522Z,1002.06
2018-12-22T05:49:31.489Z,1002.04
2018-12-22T05:50:31.459Z,1002.10
2018-12-22T05:51:31.424Z,1002.11
2018-12-22T05:52:31.392Z,1002.16
2018-12-22T05:53:31.360Z,1002.11
2018-12-22T05:54:31.326Z,1002.18
2018-12-22T05:55:31.293Z,1002.12
2018-12-22T05:56:31.261Z,1002.11
2018-12-22T05:57:31.228Z,1002.10
2018-12-22T05:58:31.195Z,1002.12
2018-12-22T05:59:31.166Z,1002.12
2018-12-22T06:00:31.130Z,1002.16
2018-12-22T06:01:31.098Z,1002.14
2018-12-22T06:02:31.070Z,1002.21
2018-12-22T06:03:31.033Z,1002.25
2018-12-22T06:04:31.003Z,1002.24
2018-12-22T06:05:30.967Z,1002.27
2018-12-22T06:06:30.934Z,1002.28
2018-12-22T06:07:30.902Z,1002.27
2018-12-22T06:08:30.868Z,1002.25
2018-12-22T06:09:30.835Z,1002.27
2018-12-22T06:10:30.803Z,1002.27
2018-12-22T06:11:30.771Z,1002.30
2018-12-22T06:12:30.739Z,1002.32
2018-12-22T06:13:30.706Z,1002.34
2018-12-22T06:14:30.673Z,1002.36
2018-12-22T06:15:30.642Z,1002.36
2018-12-22T06:16:30.609Z,1002.38
2018-12-22T06:17:30.576Z,1002.35
2018-12-22T06:18:30.542Z,1002.40
2018-12-22T06:19:30.510Z,1002.40
2018-12-22T06:20:30.477Z,1002.43
2018-12-22T06:21:30.446Z,1002.41
2018-12-22T06:22:30.413Z,1002.43
2018-12-22T06:23:30.387Z,1002.45
2018-12-22T06:24:30.349Z,1002.51
2018-12-22T06:25:30.314Z,1002.50
2018-12-22T06:26:30.287Z,1002.48
2018-12-22T06:27:30.249Z,1002.56
2018-12-22T06:28:30.218Z,1002.55
2018-12-22T06:29:30.184Z,1002.57
2018-12-22T06:30:30.151Z,1002.53
2018-12-22T06:31:30.119Z,1002.57
2018-12-22T06:32:30.088Z,1002.56
2018-12-22T06:33:30.053Z,1002.63
2018-12-22T06:34:30.021Z,1002.62
2018-12-22T06:35:29.990Z,1002.65
2018-12-22T06:36:29.956Z,1002.64
2018-12-22T06:37:29.924Z,1002.69
2018-12-22T06:38:29.890Z,1002.69
2018-12-22T06:39:29.860Z,1002.69
2018-12-22T06:40:29.826Z,1002.69
2018-12-22T06:41:29.799Z,1002.69
2018-12-22T06:42:29.762Z,1002.74
2018-12-22T06:43:29.731Z,1002.69
2018-12-22T06:44:29.697Z,1002.73
2018-12-22T06:45:29.664Z,1002.68
2018-12-22T06:46:29.634Z,1002.73
2018-12-22T06:47:29.600Z,1002.73
2018-12-22T06:48:29.567Z,1002.74
2018-12-22T06:49:29.684Z,1002.76
2018-12-22T06:50:29.502Z,1002.76
2018-12-22T06:51:29.470Z,1002.74
2018-12-22T06:52:29.437Z,1002.86
2018-12-22T06:53:29.404Z,1002.86
2018-12-22T06:54:29.373Z,1002.88
2018-12-22T06:55:29.339Z,1002.93
2018-12-22T06:56:29.309Z,1002.94
2018-12-22T06:57:29.273Z,1003.01
2018-12-22T06:58:29.242Z,1003.02
2018-12-22T06:59:29.209Z,1003.05
2018-12-22T07:00:29.177Z,1003.03
2018-12-22T07:01:29.143Z,1003.08
2018-12-22T07:02:29.112Z,1003.07
2018-12-22T07:03:29.079Z,1003.11
2018-12-22T07:04:29.046Z,1003.13
2018-12-22T07:05:29.015Z,1003.14
2018-12-22T07:06:28.982Z,1003.15
2018-12-22T07:07:28.949Z,1003.15
2018-12-22T07:08:28.916Z,1003.17
2018-12-22T07:09:28.883Z,1003.15
2018-12-22T07:10:28.853Z,1003.20
2018-12-22T07:11:28.818Z,1003.14
2018-12-22T07:12:28.791Z,1003.18
2018-12-22T07:13:28.753Z,1003.13
2018-12-22T07:14:28.721Z,1003.21
2018-12-22T07:15:28.690Z,1003.23
2018-12-22T07:16:28.658Z,1003.27
2018-12-22T07:17:28.719Z,1003.33
2018-12-22T07:18:28.591Z,1003.29
2018-12-22T07:19:28.561Z,1003.38
2018-12-22T07:20:28.527Z,1003.37
2018-12-22T07:21:28.493Z,1003.38
2018-12-22T07:22:28.463Z,1003.42
2018-12-22T07:23:28.429Z,1003.40
2018-12-22T07:24:28.396Z,1003.43
2018-12-22T07:25:28.362Z,1003.50
2018-12-22T07:26:28.334Z,1003.45
2018-12-22T07:27:28.298Z,1003.47
2018-12-22T07:28:28.267Z,1003.49
2018-12-22T07:29:28.235Z,1003.53
2018-12-22T07:30:28.202Z,1003.54
2018-12-22T07:31:28.169Z,1003.53
2018-12-22T07:32:28.136Z,1003.55
2018-12-22T07:33:28.103Z,1003.57
2018-12-22T07:34:28.073Z,1003.63
2018-12-22T07:35:28.038Z,1003.64
2018-12-22T07:36:28.010Z,1003.62
2018-12-22T07:37:27.972Z,1003.64
2018-12-22T07:38:27.941Z,1003.59
2018-12-22T07:39:27.911Z,1003.63
2018-12-22T07:40:27.877Z,1003.58
2018-12-22T07:41:27.843Z,1003.61
2018-12-22T07:42:27.812Z,1003.66
2018-12-22T07:43:27.781Z,1003.65
2018-12-22T07:44:27.748Z,1003.65
2018-12-22T07:45:27.713Z,1003.69
2018-12-22T07:46:27.683Z,1003.71
2018-12-22T07:47:27.649Z,1003.71
2018-12-22T07:48:27.618Z,1003.71
2018-12-22T07:49:27.583Z,1003.73
2018-12-22T07:50:27.554Z,1003.77
2018-12-22T07:51:27.520Z,1003.81
2018-12-22T07:52:27.487Z,1003.77
2018-12-22T07:53:27.453Z,1003.80
2018-12-22T07:54:27.422Z,1003.78
2018-12-22T07:55:27.389Z,1003.82
2018-12-22T07:56:27.359Z,1003.81
2018-12-22T07:57:27.324Z,1003.83
2018-12-22T07:58:27.292Z,1003.86
2018-12-22T07:59:27.260Z,1003.84
2018-12-22T08:00:34.603Z,1003.85
2018-12-22T08:01:27.194Z,1003.89
2018-12-22T08:02:27.162Z,1003.92
2018-12-22T08:03:27.130Z,1003.90
2018-12-22T08:04:27.098Z,1003.93
2018-12-22T08:05:27.065Z,1003.95
2018-12-22T08:06:27.031Z,1003.96
2018-12-22T08:07:26.999Z,1003.96
2018-12-22T08:08:26.968Z,1003.97
2018-12-22T08:09:26.934Z,1003.97
2018-12-22T08:10:27.001Z,1003.97
2018-12-22T08:11:26.871Z,1003.99
2018-12-22T08:12:26.838Z,1004.01
2018-12-22T08:13:26.806Z,1003.97
2018-12-22T08:14:26.774Z,1004.03
2018-12-22T08:15:26.742Z,1004.06
2018-12-22T08:16:26.709Z,1004.06
2018-12-22T08:17:26.676Z,1004.05
2018-12-22T08:18:26.643Z,1004.09
2018-12-22T08:19:26.611Z,1004.17
2018-12-22T08:20:26.580Z,1004.21
2018-12-22T08:21:26.551Z,1004.21
2018-12-22T08:22:26.513Z,1004.19
2018-12-22T08:23:26.481Z,1004.21
2018-12-22T08:24:26.449Z,1004.25
2018-12-22T08:25:26.415Z,1004.27
2018-12-22T08:26:26.384Z,1004.34
2018-12-22T08:27:26.352Z,1004.33
2018-12-22T08:28:26.324Z,1004.38
2018-12-22T08:29:26.286Z,1004.40
2018-12-22T08:30:26.256Z,1004.42
2018-12-22T08:31:26.226Z,1004.48
2018-12-22T08:32:26.191Z,1004.51
2018-12-22T08:33:26.158Z,1004.50
2018-12-22T08:34:26.126Z,1004.56
2018-12-22T08:35:26.096Z,1004.54
2018-12-22T08:36:26.061Z,1004.57
2018-12-22T08:37:26.029Z,1004.55
2018-12-22T08:38:25.996Z,1004.56
2018-12-22T08:39:25.965Z,1004.55
2018-12-22T08:40:25.930Z,1004.57
2018-12-22T08:41:25.898Z,1004.57
2018-12-22T08:42:25.867Z,1004.64
2018-12-22T08:43:25.835Z,1004.67
2018-12-22T08:44:25.802Z,1004.67
2018-12-22T08:45:25.769Z,1004.72
2018-12-22T08:46:25.738Z,1004.77
2018-12-22T08:47:25.736Z,1004.79
2018-12-22T08:48:25.684Z,1004.85
2018-12-22T08:49:25.666Z,1004.91
2018-12-22T08:50:25.609Z,1004.91
2018-12-22T08:51:25.579Z,1004.93
2018-12-22T08:52:25.543Z,1004.96
2018-12-22T08:53:25.510Z,1004.93
2018-12-22T08:54:25.486Z,1004.97
2018-12-22T08:55:25.445Z,1004.99
2018-12-22T08:56:25.415Z,1005.02
2018-12-22T08:57:25.383Z,1005.04
2018-12-22T08:58:25.348Z,1005.05
2018-12-22T08:59:25.317Z,1005.06
2018-12-22T09:00:25.286Z,1005.03
2018-12-22T09:01:25.252Z,1005.07
2018-12-22T09:02:25.218Z,1005.04
2018-12-22T09:03:25.188Z,1005.12
2018-12-22T09:04:25.158Z,1005.11
2018-12-22T09:05:25.124Z,1005.11
2018-12-22T09:06:25.090Z,1005.15
2018-12-22T09:07:25.059Z,1005.15
2018-12-22T09:08:25.025Z,1005.22
2018-12-22T09:09:24.994Z,1005.21
2018-12-22T09:10:24.961Z,1005.30
2018-12-22T09:11:24.927Z,1005.29
2018-12-22T09:12:24.897Z,1005.31
2018-12-22T09:13:24.864Z,1005.29
2018-12-22T09:14:24.830Z,1005.35
2018-12-22T09:15:24.799Z,1005.36
2018-12-22T09:16:24.766Z,1005.39
2018-12-22T09:17:24.733Z,1005.44
2018-12-22T09:18:24.702Z,1005.41
2018-12-22T09:19:24.670Z,1005.47
2018-12-22T09:20:24.636Z,1005.55
2018-12-22T09:21:24.605Z,1005.53
2018-12-22T09:22:24.571Z,1005.59
2018-12-22T09:23:24.541Z,1005.55
2018-12-22T09:24:24.511Z,1005.63
2018-12-22T09:25:24.475Z,1005.60
2018-12-22T09:26:24.446Z,1005.62
2018-12-22T09:27:24.412Z,1005.64
2018-12-22T09:28:24.385Z,1005.66
2018-12-22T09:29:24.347Z,1005.71
2018-12-22T09:30:24.316Z,1005.68
2018-12-22T09:31:24.280Z,1005.75
2018-12-22T09:32:24.248Z,1005.71
2018-12-22T09:33:24.216Z,1005.73
2018-12-22T09:34:24.183Z,1005.74
2018-12-22T09:35:24.153Z,1005.77
2018-12-22T09:36:24.120Z,1005.71
2018-12-22T09:37:24.086Z,1005.74
2018-12-22T09:38:24.054Z,1005.74
2018-12-22T09:39:24.022Z,1005.74
2018-12-22T09:40:23.990Z,1005.76
2018-12-22T09:41:23.956Z,1005.81
2018-12-22T09:42:23.926Z,1005.84
2018-12-22T09:43:23.892Z,1005.90
2018-12-22T09:44:23.861Z,1005.88
2018-12-22T09:45:23.828Z,1005.96
2018-12-22T09:46:23.796Z,1005.91
2018-12-22T09:47:23.762Z,1005.98
2018-12-22T09:48:23.731Z,1006.00
2018-12-22T09:49:23.698Z,1006.01
2018-12-22T09:50:23.667Z,1005.97
2018-12-22T09:51:23.634Z,1005.99
2018-12-22T09:52:23.601Z,1006.04
2018-12-22T09:53:23.568Z,1006.06
2018-12-22T09:54:23.540Z,1006.10
2018-12-22T09:55:23.504Z,1006.10
2018-12-22T09:56:23.472Z,1006.12
2018-12-22T09:57:23.440Z,1006.15
2018-12-22T09:58:23.407Z,1006.16
2018-12-22T09:59:23.375Z,1006.17
2018-12-22T10:00:23.345Z,1006.16
2018-12-22T10:01:23.311Z,1006.19
2018-12-22T10:02:23.278Z,1006.24
2018-12-22T10:03:23.245Z,1006.27
2018-12-22T10:04:23.214Z,1006.31
2018-12-22T10:05:23.181Z,1006.31
2018-12-22T10:06:23.151Z,1006.35
2018-12-22T10:07:23.117Z,1006.32
2018-12-22T10:08:23.086Z,1006.33
2018-12-22T10:09:23.051Z,1006.36
2018-12-22T10:10:23.021Z,1006.33
2018-12-22T10:11:22.988Z,1006.36
2018-12-22T10:12:22.956Z,1006.35
2018-12-22T10:13:22.924Z,1006.45
2018-12-22T10:14:22.892Z,1006.43
2018-12-22T10:15:22.859Z,1006.51
2018-12-22T10:16:22.827Z,1006.53
2018-12-22T10:17:22.795Z,1006.54
2018-12-22T10:18:22.762Z,1006.53
2018-12-22T10:19:22.730Z,1006.58
2018-12-22T10:20:22.699Z,1006.60
2018-12-22T10:21:22.666Z,1006.59
2018-12-22T10:22:22.634Z,1006.63
2018-12-22T10:23:22.600Z,1006.64
2018-12-22T10:24:22.569Z,1006.67
2018-12-22T10:25:22.535Z,1006.64
2018-12-22T10:26:22.503Z,1006.66
2018-12-22T10:27:22.625Z,1006.72
2018-12-22T10:28:22.440Z,1006.71
2018-12-22T10:29:22.408Z,1006.76
2018-12-22T10:30:22.374Z,1006.77
2018-12-22T10:31:22.340Z,1006.78
2018-12-22T10:32:22.309Z,1006.81
2018-12-22T10:33:22.278Z,1006.82
2018-12-22T10:34:22.243Z,1006.78
2018-12-22T10:35:22.211Z,1006.82
2018-12-22T10:36:22.179Z,1006.84
2018-12-22T10:37:22.146Z,1006.85
2018-12-22T10:38:22.114Z,1006.86
2018-12-22T10:39:22.087Z,1006.84
2018-12-22T10:40:22.050Z,1006.84
2018-12-22T10:41:22.019Z,1006.85
2018-12-22T10:42:21.983Z,1006.86
2018-12-22T10:43:21.952Z,1006.90
2018-12-22T10:44:21.919Z,1006.91
2018-12-22T10:45:21.888Z,1006.93
2018-12-22T10:46:21.853Z,1006.96
2018-12-22T10:47:21.833Z,1007.01
2018-12-22T10:48:21.789Z,1007.01
2018-12-22T10:49:21.756Z,1007.08
2018-12-22T10:50:21.725Z,1007.05
2018-12-22T10:51:24.359Z,1007.09
2018-12-22T10:52:21.666Z,1007.05
2018-12-22T10:53:21.625Z,1007.07
2018-12-22T10:54:21.594Z,1007.12
2018-12-22T10:55:21.564Z,1007.11
2018-12-22T10:56:21.529Z,1007.13
2018-12-22T10:57:21.499Z,1007.13
2018-12-22T10:58:21.465Z,1007.17
2018-12-22T10:59:21.432Z,1007.20
2018-12-22T11:00:21.401Z,1007.21
2018-12-22T11:01:26.440Z,1007.23
2018-12-22T11:02:21.337Z,1007.24
2018-12-22T11:03:21.304Z,1007.22
2018-12-22T11:04:21.273Z,1007.23
2018-12-22T11:05:21.241Z,1007.23
2018-12-22T11:06:21.207Z,1007.25
2018-12-22T11:07:21.177Z,1007.30
2018-12-22T11:08:21.144Z,1007.35
2018-12-22T11:09:21.113Z,1007.40
2018-12-22T11:10:21.078Z,1007.43
2018-12-22T11:11:21.047Z,1007.44
2018-12-22T11:12:21.015Z,1007.45
2018-12-22T11:13:20.983Z,1007.45
2018-12-22T11:14:20.952Z,1007.50
2018-12-22T11:15:20.919Z,1007.56
2018-12-22T11:16:20.887Z,1007.53
2018-12-22T11:17:20.855Z,1007.55
2018-12-22T11:18:20.822Z,1007.59
2018-12-22T11:19:20.793Z,1007.55
2018-12-22T11:20:20.760Z,1007.57
2018-12-22T11:21:20.728Z,1007.54
2018-12-22T11:22:20.695Z,1007.61
2018-12-22T11:23:20.869Z,1007.61
2018-12-22T11:24:20.635Z,1007.65
2018-12-22T11:25:20.632Z,1007.66
2018-12-22T11:26:20.567Z,1007.69
2018-12-22T11:27:20.536Z,1007.67
2018-12-22T11:28:20.504Z,1007.73
2018-12-22T11:29:20.472Z,1007.74
2018-12-22T11:30:20.441Z,1007.70
2018-12-22T11:31:20.409Z,1007.72
2018-12-22T11:32:20.377Z,1007.71
2018-12-22T11:33:20.347Z,1007.72
2018-12-22T11:34:20.314Z,1007.74
2018-12-22T11:35:20.282Z,1007.79
2018-12-22T11:36:20.250Z,1007.82
2018-12-22T11:37:20.218Z,1007.86
2018-12-22T11:38:20.188Z,1007.85
2018-12-22T11:39:20.154Z,1007.86
2018-12-22T11:40:20.122Z,1007.85
2018-12-22T11:41:20.087Z,1007.82
2018-12-22T11:42:20.056Z,1007.83
2018-12-22T11:43:20.026Z,1007.85
2018-12-22T11:44:19.993Z,1007.87
2018-12-22T11:45:19.959Z,1007.85
2018-12-22T11:46:19.928Z,1007.84
2018-12-22T11:47:19.897Z,1007.90
2018-12-22T11:48:19.865Z,1007.85
2018-12-22T11:49:19.831Z,1007.86
2018-12-22T11:50:19.799Z,1007.89
2018-12-22T11:51:19.767Z,1007.91
2018-12-22T11:52:19.736Z,1007.88
2018-12-22T11:53:19.703Z,1007.88
2018-12-22T11:54:19.670Z,1007.87
2018-12-22T11:55:19.639Z,1007.93
2018-12-22T11:56:19.608Z,1007.93
2018-12-22T11:57:19.573Z,1008.00
2018-12-22T11:58:19.542Z,1008.00
2018-12-22T11:59:19.510Z,1008.03
2018-12-22T12:00:19.479Z,1008.05
2018-12-22T12:01:19.446Z,1008.05
2018-12-22T12:02:19.413Z,1008.10
2018-12-22T12:03:19.381Z,1008.15
2018-12-22T12:04:19.350Z,1008.18
2018-12-22T12:05:19.316Z,1008.22
2018-12-22T12:06:19.287Z,1008.24
2018-12-22T12:07:19.253Z,1008.23
2018-12-22T12:08:19.222Z,1008.26